Tuesday, January 22, 2019, 9:11 PM GMT
Back to Local

CYFC, Fredericton, N. B.

Location: , , Canada Lat: 45.867
Local Time: 9:11 PM GMT (21:11 GMT) Lon: -66.533
Time Zone: GMT Elev: 55 ft

Show me the last for .
Show Decoded

2019-01-22 20:00 METAR CYFC 222000Z AUTO 28008G17KT 240V320 9SM CLR M09/M16 A3012 RMK SLP204 =
2019-01-22 19:00 METAR CYFC 221900Z AUTO 30011G21KT 270V330 9SM CLR M09/M15 A3009 RMK PRESRR
                 SLP192 =
2019-01-22 18:09 METAR CYFC 221809Z AUTO 29013G21KT 9SM CLR M10/M16 A3007 RMK SLP185 =
2019-01-22 18:04 METAR CYFC 221804Z AUTO 29013G21KT 7SM -SN CLR M10/M16 A3007 RMK SLP184 =
2019-01-22 18:00 METAR CYFC 221800Z AUTO 29014G21KT 5SM -SN CLR M10/M15 A3007 RMK SLP184 =
2019-01-22 17:56 METAR CYFC 221756Z AUTO 29012G24KT 260V320 5SM -SN CLR M10/M16 A3006 RMK SLP183
                 =
2019-01-22 17:55 METAR CYFC 221755Z AUTO 29014G26KT 260V320 5SM HZ CLR M10/M16 A3006 RMK SLP183 =
2019-01-22 17:00 METAR CYFC 221700Z AUTO 28012G22KT 9SM CLR M11/M15 A3004 RMK SLP175 =
2019-01-22 16:00 METAR CYFC 221600Z AUTO 30013G20KT 9SM CLR M12/M17 A3002 RMK SLP170 =
2019-01-22 15:56 METAR CYFC 221556Z AUTO 30015G23KT 9SM CLR M12/M17 A3002 RMK SLP170 =
2019-01-22 15:45 METAR CYFC 221545Z AUTO 30016G22KT 9SM -SN CLR M12/M17 A3002 RMK SLP170 =
2019-01-22 15:00 METAR CYFC 221500Z AUTO 31014G23KT 9SM CLR M13/M17 A3002 RMK SLP168 =
2019-01-22 14:00 METAR CYFC 221400Z AUTO 29009G20KT 260V330 9SM CLR M15/M19 A3000 RMK SLP161 =
2019-01-22 13:00 METAR CYFC 221300Z AUTO 29007G20KT 9SM FEW038 M16/M19 A2997 RMK SLP153 =
2019-01-22 12:00 METAR CYFC 221200Z AUTO 29009G19KT 270V340 9SM BKN036 M16/M19 A2993 RMK SLP138 =
2019-01-22 11:00 METAR CYFC 221100Z AUTO 29010G21KT 260V320 9SM SCT060 M16/M18 A2990 RMK SLP129 =
2019-01-22 10:20 METAR CYFC 221020Z AUTO 28011G19KT 9SM FEW033 BKN070 OVC140 M15/M18 A2988 RMK
                 SLP121 =
2019-01-22 10:00 METAR CYFC 221000Z AUTO 30011G16KT 260V330 9SM -SN FEW033 SCT070 OVC140 M15/M17
                 A2986 RMK SLP116 =
2019-01-22 09:00 METAR CYFC 220900Z AUTO 30010G19KT 7SM -SN BKN050 OVC095 M14/M17 A2982 RMK
                 SLP101 =
2019-01-22 08:00 METAR CYFC 220800Z AUTO 30011G23KT 9SM -SN OVC080 M14/M17 A2979 RMK SLP090 =
2019-01-22 07:31 METAR CYFC 220731Z AUTO 30010G17KT 7SM -SN OVC075 M14/M16 A2977 RMK SLP085 =
2019-01-22 07:05 METAR CYFC 220705Z AUTO 30013G21KT 5SM -SN OVC065 M14/M16 A2976 RMK SLP081 =
2019-01-22 07:00 METAR CYFC 220700Z AUTO 30010G17KT 7SM -SN OVC065 M14/M16 A2976 RMK SLP081 =
2019-01-22 06:41 METAR CYFC 220641Z AUTO 30011G16KT 260V330 6SM -SN BKN035 OVC065 M14/M16 A2975
                 RMK SLP078 =
2019-01-22 06:04 METAR CYFC 220604Z AUTO 29006G15KT 5SM -SN OVC055 M14/M16 A2974 RMK SLP073 =
2019-01-22 06:00 METAR CYFC 220600Z AUTO 29007G15KT 270V330 6SM -SN OVC055 M14/M16 A2973 RMK
                 SLP072 =
2019-01-22 05:18 METAR CYFC 220518Z AUTO 29009KT 6SM -SN BKN041 OVC055 M14/M16 A2972 RMK SLP066 =
2019-01-22 05:00 METAR CYFC 220500Z AUTO 30007KT 3SM -SN BKN037 OVC050 M14/M16 A2971 RMK SLP064 =
2019-01-22 04:02 METAR CYFC 220402Z AUTO 29006KT 5SM -SN OVC055 M14/M16 A2968 RMK SLP055 =
2019-01-22 04:00 METAR CYFC 220400Z AUTO 29007KT 6SM -SN OVC055 M14/M16 A2968 RMK SLP055 =
2019-01-22 03:00 METAR CYFC 220300Z AUTO 28006KT 9SM -SN SCT046 OVC075 M14/M16 A2966 RMK SLP047 =
2019-01-22 02:26 METAR CYFC 220226Z AUTO 28006KT 6SM -SN OVC034 M14/M16 A2964 RMK SLP042 =
2019-01-22 02:00 METAR CYFC 220200Z AUTO 28006KT 3SM -SN SCT047 OVC065 M14/M16 A2964 RMK SLP039 =
2019-01-22 01:46 METAR CYFC 220146Z AUTO 30006KT 260V330 5SM -SN OVC065 M14/M16 A2963 RMK SLP038
                 =
2019-01-22 01:00 METAR CYFC 220100Z AUTO 29006KT 9SM -SN FEW042 BKN049 OVC060 M14/M16 A2963 RMK
                 SLP037 =
2019-01-22 00:00 METAR CYFC 220000Z AUTO 29007KT 6SM -SN OVC060 M14/M16 A2962 RMK SLP032 =
2019-01-21 23:15 METAR CYFC 212315Z AUTO 29007G15KT 6SM -SN SCT049 OVC055 M14/M16 A2962 RMK
                 SLP032 =
2019-01-21 23:00 METAR CYFC 212300Z AUTO 29008G15KT 5SM -SN OVC047 M14/M15 A2961 RMK SLP031 =
2019-01-21 22:00 METAR CYFC 212200Z AUTO 27009G15KT 260V320 5SM -SN OVC045 M13/M15 A2960 RMK
                 SLP027 =
2019-01-21 21:53 METAR CYFC 212153Z AUTO 28006KT 5SM -SN OVC045 M13/M15 A2959 RMK SLP025 =

Support USWX by starting your Amazon purchase here.